LELNLEAS

Guest
Details From LELN - Leon
To LEAS - Asturias
Flight Number -
Tags generated
Created
Modified
Stats Distance 61 nm / 113 km
Max Altitude 4,400 ft / 1,341 m
Waypoints 3
Social Downloads 1
Likes 0
Share VATSIM

Download

Looking for another format? Having issues loading an existing format? Contact us
Advertisement - Login to hide

Notes

Basic altitude profile: - Ascent Rate: 2500ft/min - Ascent Speed: 250kts - Cruise Altitude: 7000ft - Cruise Speed: 300kts - Descent Rate: 1500ft/min - Descent Speed: 250kts

Route

LELN RATPO LEAS

ID Type Via Altitude Latitude Longitude Leg Dist Tot Dist Heading (true) Name
O LELN APT - 0 ft / 0 m 42.59194˚ -5.65419˚ - 0 nm - Leon
RATPO FIX - 4,400 ft / 1,341 m 43.31711˚ -5.98170˚ 45 nm 45 nm 342° / 342° -
O LEAS APT - 0 ft / 0 m 43.56350˚ -6.03467˚ 14 nm 60 nm 351° / 351° Asturias

Altitude Profile

Advertisement - Login to hide

LELN

Details ICAO LELN (LEN)
Name Leon
Region Spain
Timezone Europe/Madrid (UTC+1.0)
Stats Elevation 3,006 ft / 916 m (AMSL)
Location 42.591935° -5.654188°
Runways 2
Magnetic Variation 1.437° W

METAR

LELN 111900Z 30010KT 250V330 9999 FEW014 01/M03 Q1003

Decode

TAF

Not found

Departure Runways

ID Width Length Bearing (true) Bearing (mag) Surface Threshold Offset Overrun Length
05 148 ft / 45 m 9,836 ft / 2,998 m 45.23° 46.67° Asphalt 0 ft / 0 m 210 ft / 64 m
06 328 ft / 100 m 3,602 ft / 1,098 m 59.75° 61.19° Dirt 0 ft / 0 m 0 ft / 0 m
23 148 ft / 45 m 9,836 ft / 2,998 m 225.25° 226.69° Asphalt 0 ft / 0 m 190 ft / 58 m
24 328 ft / 100 m 3,602 ft / 1,098 m 239.75° 241.19° Dirt 0 ft / 0 m 0 ft / 0 m

LEAS

Details ICAO LEAS (OVD)
Name Asturias
Region Spain
Timezone Europe/Madrid (UTC+1.0)
Stats Elevation 416 ft / 127 m (AMSL)
Location 43.563496° -6.034670°
Runways 1
Magnetic Variation 1.629° W

METAR

LEAS 111938Z 32014KT 280V010 9999 FEW040 07/05 Q1006 TEMPO 3000 RA

Decode

TAF

TAF AMD TAF AMD LEAS 111505Z 1115/1215 26015G25KT 8000 SCT020 BKN040 TX11/1213Z TN05/1203Z TEMPO 1115/1118 26020G35KT TEMPO 1115/1118 26025G43KT TEMPO 1115/1212 3000 SHRA SCT030TCU PROB40 TEMPO 1115/1209 3000 TSRAGR BKN014 BKN025CB

Decode

Destination Runways

ID Width Length Bearing (true) Bearing (mag) Surface Threshold Offset Overrun Length
11 148 ft / 45 m 7,216 ft / 2,200 m 108.09° 109.72° Asphalt 0 ft / 0 m 164 ft / 50 m
29 148 ft / 45 m 7,216 ft / 2,200 m 288.10° 289.73° Asphalt 0 ft / 0 m 164 ft / 50 m

Approach Navaids

Runway Type Ident Frequency Range Bearing (true) Bearing (mag) Slope Elevation
29 Localiser AVS 110.10 MHz 18 nm / 33 km 288.30° 289.93° - 416 ft / 127 m (AMSL)
29 Glidescope AVS 110.10 MHz 10 nm / 19 km 288.09° 289.72° 3.00° 416 ft / 127 m (AMSL)
29 DME AVS 110.10 MHz 18 nm / 33 km - - - 430 ft / 131 m (AMSL)

Popular Alternatives